Pagrindinis puslapis
METAR-TAF:

METAR-TAF

Oro uostai :

Jonšiopingas, Švedija

platuma: 57-46N, ilguma: 014-05E, Aukštis: 226 m

Dabartinis oras

Ataskaita buvo paskelbta 17 minutes, ne 13:20 UTC
Vėjas 8 kt iš Šiaurės Vakarų
Temperatūra 5°C
Drėgmė 75%
Slėgis 1001 hPa
Matomumas 10 km arba daugiau
Išsisklaidę debesys ne aukštis 2500 ft

METAR: ESGJ 191320Z 31008KT 9999 SCT025 05/01 Q1001 R19/29//70

Laikas: 14:37 (13:37 UTC)

Prognozė

Ataskaita buvo paskelbta 2 valandos ir 7 minutes, ne 11:30 UTC
Prognozė galioja nuo 19 metu 12 UTC su 19 metu 21 UTC
Vėjas 8 kt iš Vakarų
Matomumas 10 km arba daugiau
Išsisklaidę debesys ne aukštis 1200 ft
Su prošvaistėmis ne aukštis 2000 ft

TAF: ESGJ 191130Z 1912/1921 27008KT 9999 SCT012 BKN020

Orai ataskaitas ir orų prognozės (METAR, TAF).

turimą stotys yra geltonos ir raudonos taškus žemėlapyje.

Perkelti pele per norėdami pamatyti stoties vardą.

Tada spustelėkite, norėdami matyti oro stebėjimo ir prognozės.

Norėdami pakeisti žemėlapį: spustelėkite ant žalios mygtukų su juodo kryžiaus žemyn,; žalią mygtuką su brūkšneliu, jei norite nutolinti; arba žalių rodyklių gretimoms žemėlapius.


METAR-TAF: